KPVJ

Pauls Valley Municipal Airport

Pauls Valley, Oklahoma, USA
METAR KPVJ 220355Z AUTO 15011G17KT 10SM CLR 08/04 A2981 RMK AO2 T00820044
Observed Flight Rules
Jan-22 @ 03:55 UTC (22 minutes ago) Visual Flight Rules
Wind Visibility Clouds
150° at 11 knots
 Gusting to 17 knots
10 miles
  • Clear skies
Temperatures Readings
Current 8°C / 46°F
Dewpoint 4°C / 39°F
Humidity 76%
Altimeter 29.81" Hg
Pressure 1009.52 hPa
Elevation 295
METAR KPVJ 220355Z AUTO 15011G17KT 10SM CLR 08/04 A2981 RMK AO2 T00820044
Observed Flight Rules
Jan-22 @ 03:55 UTC
(22 minutes ago)
VFR
Wind Visibility
150° at 11 knots
 Gusting to 17 knots
10 miles
Clouds
  • Clear skies
Temperature Dewpoint
8°C / 46°F 4°C / 39°F
Humidity Altimeter Pressure
76% 29.81" Hg 1009.52 hPa